createdAt,value
2023-05-22T00:00:21.561Z,0.00
2023-05-22T00:01:18.996Z,0.00
2023-05-22T00:02:18.556Z,0.00
2023-05-22T00:03:18.107Z,0.00
2023-05-22T00:04:18.618Z,0.00
2023-05-22T00:05:19.572Z,0.00
2023-05-22T00:06:18.117Z,0.00
2023-05-22T00:07:18.075Z,0.00
2023-05-22T00:08:19.705Z,0.00
2023-05-22T00:09:18.529Z,0.00
2023-05-22T00:10:18.516Z,0.00
2023-05-22T00:11:18.938Z,0.00
2023-05-22T00:12:18.456Z,0.00
2023-05-22T00:13:18.578Z,0.00
2023-05-22T00:14:18.116Z,0.00
2023-05-22T00:15:22.505Z,0.00
2023-05-22T00:16:21.128Z,0.00
2023-05-22T00:17:20.599Z,0.00
2023-05-22T00:18:36.065Z,0.00
2023-05-22T00:19:31.100Z,0.00
2023-05-22T00:20:20.048Z,0.00
2023-05-22T00:21:19.048Z,0.00
2023-05-22T00:22:18.115Z,0.00
2023-05-22T00:23:18.073Z,0.00
2023-05-22T00:24:18.665Z,0.00
2023-05-22T00:25:18.987Z,0.00
2023-05-22T00:26:18.873Z,0.00
2023-05-22T00:27:19.063Z,0.00
2023-05-22T00:28:18.880Z,0.00
2023-05-22T00:29:20.330Z,0.00
2023-05-22T00:30:22.046Z,0.00
2023-05-22T00:31:18.716Z,0.00
2023-05-22T00:32:19.213Z,0.00
2023-05-22T00:33:18.083Z,0.00
2023-05-22T00:34:19.159Z,0.00
2023-05-22T00:35:19.588Z,0.00
2023-05-22T00:36:18.926Z,0.00
2023-05-22T00:37:18.243Z,0.00
2023-05-22T00:38:17.957Z,0.00
2023-05-22T00:39:19.046Z,0.00
2023-05-22T00:40:17.552Z,0.00
2023-05-22T00:41:19.004Z,0.00
2023-05-22T00:42:18.598Z,0.00
2023-05-22T00:43:18.085Z,0.00
2023-05-22T00:44:17.619Z,0.00
2023-05-22T00:45:18.018Z,0.00
2023-05-22T00:46:17.625Z,0.00
2023-05-22T00:47:18.075Z,0.00
2023-05-22T00:48:17.845Z,0.00
2023-05-22T00:49:17.671Z,0.00
2023-05-22T01:39:51.671Z,0.00
2023-05-22T01:40:51.548Z,0.00
2023-05-22T01:41:51.478Z,0.00
2023-05-22T01:42:51.481Z,0.00
2023-05-22T01:43:51.500Z,0.00
2023-05-22T01:44:51.450Z,0.00
2023-05-22T01:45:51.571Z,0.00
2023-05-22T01:46:52.201Z,0.00
2023-05-22T01:47:51.440Z,0.00
2023-05-22T01:48:51.411Z,0.00
2023-05-22T01:49:51.446Z,0.00
2023-05-22T01:50:51.362Z,0.00
2023-05-22T01:51:51.404Z,0.00
2023-05-22T01:52:51.364Z,0.00
2023-05-22T01:53:51.300Z,0.00
2023-05-22T01:54:51.328Z,0.00
2023-05-22T01:55:51.368Z,0.00
2023-05-22T01:56:52.358Z,0.00
2023-05-22T01:57:51.295Z,0.00
2023-05-22T01:58:51.243Z,0.00
2023-05-22T01:59:51.215Z,0.00
2023-05-22T02:00:51.343Z,0.00
2023-05-22T02:01:51.472Z,0.00
2023-05-22T02:02:52.260Z,0.00
2023-05-22T02:03:52.143Z,0.00
2023-05-22T02:04:52.052Z,0.00
2023-05-22T02:05:51.931Z,0.00
2023-05-22T02:06:52.092Z,0.00
2023-05-22T02:07:52.016Z,0.00
2023-05-22T02:08:51.936Z,0.00
2023-05-22T02:09:51.087Z,0.00
2023-05-22T02:10:51.953Z,0.00
2023-05-22T02:11:51.890Z,0.00
2023-05-22T02:12:51.043Z,0.00
2023-05-22T02:13:51.102Z,0.00
2023-05-22T02:14:51.314Z,0.00
2023-05-22T02:15:51.219Z,0.00
2023-05-22T02:16:51.003Z,0.00
2023-05-22T02:17:50.997Z,0.00
2023-05-22T02:18:52.041Z,0.00
2023-05-22T02:19:51.846Z,0.00
2023-05-22T02:20:50.919Z,0.00
2023-05-22T02:21:50.933Z,0.00
2023-05-22T02:22:51.849Z,0.00
2023-05-22T02:23:51.734Z,0.00
2023-05-22T02:24:50.887Z,0.00
2023-05-22T02:25:50.882Z,0.00
2023-05-22T02:26:51.679Z,0.00
2023-05-22T02:27:51.581Z,0.00
2023-05-22T02:28:50.788Z,0.00
2023-05-22T02:29:51.663Z,0.00
2023-05-22T02:30:51.753Z,0.00
2023-05-22T02:31:51.711Z,0.00
2023-05-22T02:32:51.669Z,0.00
2023-05-22T02:33:50.926Z,0.00
2023-05-22T02:34:51.469Z,0.00
2023-05-22T02:35:51.618Z,0.00
2023-05-22T02:36:50.691Z,0.00
2023-05-22T02:37:50.890Z,0.00
2023-05-22T02:38:50.658Z,0.00
2023-05-22T02:39:51.469Z,0.00
2023-05-22T02:40:50.693Z,0.00
2023-05-22T02:41:50.771Z,0.00
2023-05-22T02:42:50.826Z,0.00
2023-05-22T02:43:50.903Z,0.00
2023-05-22T02:44:50.895Z,0.00
2023-05-22T02:45:50.604Z,0.00
2023-05-22T02:46:50.921Z,0.00
2023-05-22T02:47:50.662Z,0.00
2023-05-22T02:48:50.974Z,0.00
2023-05-22T02:49:51.258Z,0.00
2023-05-22T02:50:50.895Z,0.00
2023-05-22T02:51:50.473Z,0.00
2023-05-22T02:52:50.945Z,0.00
2023-05-22T02:53:50.864Z,0.00
2023-05-22T02:54:50.628Z,0.00
2023-05-22T02:55:51.003Z,0.00
2023-05-22T02:56:50.888Z,0.00
2023-05-22T02:57:50.826Z,0.00
2023-05-22T02:58:50.431Z,0.00
2023-05-22T02:59:50.886Z,5.62
2023-05-22T03:00:50.374Z,5.62
2023-05-22T03:01:51.159Z,5.62
2023-05-22T03:02:51.046Z,5.62
2023-05-22T03:03:50.832Z,5.62
2023-05-22T03:04:50.914Z,5.62
2023-05-22T03:05:50.251Z,5.62
2023-05-22T03:06:50.252Z,5.62
2023-05-22T03:07:50.275Z,5.62
2023-05-22T03:08:50.238Z,11.25
2023-05-22T03:09:50.280Z,11.25
2023-05-22T03:10:50.166Z,11.25
2023-05-22T03:11:50.164Z,11.25
2023-05-22T03:12:50.154Z,11.25
2023-05-22T03:13:50.171Z,16.88
2023-05-22T03:14:50.099Z,16.88
2023-05-22T03:15:50.139Z,16.88
2023-05-22T03:16:50.247Z,16.88
2023-05-22T03:17:50.136Z,22.50
2023-05-22T03:18:50.179Z,22.50
2023-05-22T03:19:50.062Z,22.50
2023-05-22T03:20:50.026Z,28.12
2023-05-22T03:21:50.116Z,28.12
2023-05-22T03:22:50.028Z,28.12
2023-05-22T03:23:50.007Z,33.75
2023-05-22T03:24:50.036Z,33.75
2023-05-22T03:25:49.970Z,33.75
2023-05-22T03:26:49.941Z,39.38
2023-05-22T03:27:49.947Z,39.38
2023-05-22T03:28:49.947Z,45.00
2023-05-22T03:29:50.001Z,45.00
2023-05-22T03:30:49.907Z,50.62
2023-05-22T03:31:49.922Z,50.62
2023-05-22T03:32:49.889Z,56.25
2023-05-22T03:33:49.933Z,56.25
2023-05-22T03:34:49.834Z,56.25
2023-05-22T03:35:50.104Z,61.88
2023-05-22T03:36:50.108Z,61.88
2023-05-22T03:37:49.793Z,67.50
2023-05-22T03:38:49.798Z,67.50
2023-05-22T03:39:49.828Z,67.50
2023-05-22T03:40:49.775Z,73.12
2023-05-22T03:41:49.791Z,73.12
2023-05-22T03:42:50.611Z,78.75
2023-05-22T03:43:49.727Z,78.75
2023-05-22T03:44:49.757Z,78.75
2023-05-22T03:45:49.761Z,84.38
2023-05-22T03:46:49.752Z,84.38
2023-05-22T03:47:49.762Z,90.00
2023-05-22T03:48:49.724Z,90.00
2023-05-22T03:49:49.715Z,90.00
2023-05-22T03:50:50.390Z,95.62
2023-05-22T03:51:49.778Z,95.62
2023-05-22T03:52:49.747Z,101.25
2023-05-22T03:53:49.688Z,101.25
2023-05-22T03:54:49.667Z,101.25
2023-05-22T03:55:49.780Z,106.88
2023-05-22T03:56:49.697Z,106.88
2023-05-22T03:57:49.581Z,106.88
2023-05-22T03:58:49.685Z,112.50
2023-05-22T03:59:49.708Z,112.50
2023-05-22T04:00:50.328Z,118.12
2023-05-22T04:01:49.754Z,118.12
2023-05-22T04:02:49.815Z,123.75
2023-05-22T04:03:49.422Z,129.38
2023-05-22T04:04:49.705Z,135.00
2023-05-22T04:05:49.413Z,140.62
2023-05-22T04:06:49.400Z,146.25
2023-05-22T04:07:49.662Z,151.88
2023-05-22T04:08:49.729Z,157.50
2023-05-22T04:09:49.718Z,168.75
2023-05-22T04:10:49.440Z,174.38
2023-05-22T04:11:49.415Z,185.62
2023-05-22T04:12:49.257Z,191.25
2023-05-22T04:13:49.291Z,196.88
2023-05-22T04:14:49.569Z,202.50
2023-05-22T04:15:49.818Z,208.12
2023-05-22T04:16:50.525Z,219.38
2023-05-22T04:17:49.586Z,225.00
2023-05-22T04:18:49.286Z,230.62
2023-05-22T04:19:49.206Z,230.62
2023-05-22T04:20:49.498Z,236.25
2023-05-22T04:21:49.202Z,241.88
2023-05-22T04:22:49.203Z,247.50
2023-05-22T04:23:49.430Z,253.12
2023-05-22T04:24:49.350Z,258.75
2023-05-22T04:25:49.231Z,264.38
2023-05-22T04:26:49.234Z,264.38
2023-05-22T04:27:49.220Z,270.00
2023-05-22T04:28:49.192Z,275.62
2023-05-22T04:29:49.220Z,281.25
2023-05-22T04:30:49.219Z,286.88
2023-05-22T04:31:49.193Z,292.50
2023-05-22T04:32:49.356Z,292.50
2023-05-22T04:33:49.238Z,298.12
2023-05-22T04:34:49.179Z,298.12
2023-05-22T04:35:49.176Z,303.75
2023-05-22T04:36:49.259Z,309.38
2023-05-22T04:37:49.188Z,315.00
2023-05-22T04:38:49.210Z,320.62
2023-05-22T04:39:49.238Z,326.25
2023-05-22T04:40:49.193Z,331.88
2023-05-22T04:41:48.964Z,337.50
2023-05-22T04:42:49.306Z,343.12
2023-05-22T04:43:49.264Z,354.38
2023-05-22T04:44:49.121Z,360.00
2023-05-22T04:45:48.995Z,365.62
2023-05-22T04:46:49.344Z,371.25
2023-05-22T04:47:49.217Z,371.25
2023-05-22T04:48:49.488Z,376.88
2023-05-22T04:49:49.276Z,376.88
2023-05-22T04:50:48.970Z,382.50
2023-05-22T04:51:49.251Z,382.50
2023-05-22T04:52:48.741Z,388.12
2023-05-22T04:53:48.834Z,388.12
2023-05-22T04:54:49.172Z,388.12
2023-05-22T04:55:48.772Z,388.12
2023-05-22T04:56:48.682Z,388.12
2023-05-22T04:57:48.698Z,388.12
2023-05-22T04:58:48.696Z,393.75
2023-05-22T04:59:48.632Z,388.12
2023-05-22T05:00:48.769Z,388.12
2023-05-22T05:01:48.683Z,388.12
2023-05-22T05:02:48.803Z,388.12
2023-05-22T05:03:48.726Z,388.12
2023-05-22T05:04:48.701Z,388.12
2023-05-22T05:05:48.658Z,388.12
2023-05-22T05:06:48.683Z,382.50
2023-05-22T05:07:50.098Z,382.50
2023-05-22T05:08:48.709Z,382.50
2023-05-22T05:09:48.521Z,376.88
2023-05-22T05:10:48.906Z,376.88
2023-05-22T05:11:48.611Z,382.50
2023-05-22T05:12:48.477Z,382.50
2023-05-22T05:13:48.716Z,382.50
2023-05-22T05:14:48.448Z,382.50
2023-05-22T05:15:48.450Z,382.50
2023-05-22T05:16:48.705Z,388.12
2023-05-22T05:17:48.524Z,393.75
2023-05-22T05:18:48.684Z,399.38
2023-05-22T05:19:48.618Z,410.62
2023-05-22T05:20:48.708Z,416.25
2023-05-22T05:21:48.709Z,427.50
2023-05-22T05:22:48.591Z,438.75
2023-05-22T05:23:48.662Z,450.00
2023-05-22T05:24:48.728Z,466.88
2023-05-22T05:25:48.352Z,478.12
2023-05-22T05:26:48.523Z,489.38
2023-05-22T05:27:48.211Z,495.00
2023-05-22T05:28:48.895Z,506.25
2023-05-22T05:29:48.455Z,517.50
2023-05-22T05:30:48.846Z,528.75
2023-05-22T05:31:48.475Z,540.00
2023-05-22T05:32:48.401Z,545.62
2023-05-22T05:33:48.530Z,551.25
2023-05-22T05:34:48.478Z,562.50
2023-05-22T05:35:48.586Z,568.12
2023-05-22T05:36:48.468Z,573.75
2023-05-22T05:37:48.351Z,573.75
2023-05-22T05:38:48.468Z,568.12
2023-05-22T05:39:49.250Z,568.12
2023-05-22T05:40:48.227Z,568.12
2023-05-22T05:41:48.081Z,562.50
2023-05-22T05:42:48.498Z,562.50
2023-05-22T05:43:48.076Z,562.50
2023-05-22T05:44:48.033Z,568.12
2023-05-22T05:45:48.036Z,568.12
2023-05-22T05:46:48.047Z,573.75
2023-05-22T05:47:48.027Z,579.38
2023-05-22T05:48:48.082Z,585.00
2023-05-22T05:49:47.924Z,579.38
2023-05-22T05:50:48.267Z,585.00
2023-05-22T05:51:47.968Z,590.62
2023-05-22T05:52:47.995Z,607.50
2023-05-22T05:53:48.024Z,618.75
2023-05-22T05:54:48.003Z,630.00
2023-05-22T05:55:47.950Z,635.62
2023-05-22T05:56:47.995Z,646.88
2023-05-22T05:57:47.995Z,663.75
2023-05-22T05:58:48.504Z,663.75
2023-05-22T05:59:48.057Z,675.00
2023-05-22T06:00:48.477Z,697.50
2023-05-22T06:01:48.081Z,697.50
2023-05-22T06:02:50.538Z,697.50
2023-05-22T06:03:48.167Z,697.50
2023-05-22T06:04:47.997Z,691.88
2023-05-22T06:05:47.933Z,691.88
2023-05-22T06:06:47.984Z,669.38
2023-05-22T06:07:47.950Z,669.38
2023-05-22T06:08:47.959Z,658.12
2023-05-22T06:09:48.010Z,658.12
2023-05-22T06:10:48.198Z,663.75
2023-05-22T06:11:48.498Z,669.38
2023-05-22T06:12:48.051Z,675.00
2023-05-22T06:13:48.000Z,686.25
2023-05-22T06:14:47.971Z,686.25
2023-05-22T06:15:47.940Z,686.25
2023-05-22T06:16:48.696Z,686.25
2023-05-22T06:17:47.630Z,686.25
2023-05-22T06:18:47.550Z,686.25
2023-05-22T06:19:47.886Z,691.88
2023-05-22T06:20:47.892Z,697.50
2023-05-22T06:21:47.555Z,697.50
2023-05-22T06:22:47.918Z,697.50
2023-05-22T06:23:47.732Z,697.50
2023-05-22T06:24:47.786Z,697.50
2023-05-22T06:25:47.487Z,703.12
2023-05-22T06:26:47.499Z,703.12
2023-05-22T06:27:47.518Z,708.75
2023-05-22T06:28:47.477Z,703.12
2023-05-22T06:29:47.506Z,720.00
2023-05-22T06:30:47.813Z,708.75
2023-05-22T06:31:47.503Z,680.62
2023-05-22T06:32:47.754Z,669.38
2023-05-22T06:33:47.533Z,697.50
2023-05-22T06:34:47.500Z,714.38
2023-05-22T06:35:47.497Z,691.88
2023-05-22T06:36:48.013Z,641.25
2023-05-22T06:37:47.868Z,635.62
2023-05-22T06:38:47.428Z,641.25
2023-05-22T06:39:48.389Z,635.62
2023-05-22T06:40:47.728Z,646.88
2023-05-22T06:41:47.676Z,646.88
2023-05-22T06:42:47.871Z,641.25
2023-05-22T06:43:47.892Z,646.88
2023-05-22T06:44:47.672Z,663.75
2023-05-22T06:45:47.421Z,731.25
2023-05-22T06:46:47.701Z,686.25
2023-05-22T06:47:47.897Z,703.12
2023-05-22T06:48:47.689Z,720.00
2023-05-22T06:49:47.325Z,776.25
2023-05-22T06:50:47.162Z,787.50
2023-05-22T06:51:47.889Z,748.12
2023-05-22T06:52:47.920Z,838.12
2023-05-22T06:53:47.068Z,781.88
2023-05-22T06:54:47.029Z,810.00
2023-05-22T06:55:47.068Z,928.12
2023-05-22T06:56:47.024Z,1023.75
2023-05-22T06:57:47.004Z,1305.00
2023-05-22T06:58:46.916Z,1423.12
2023-05-22T06:59:47.039Z,1473.75
2023-05-22T07:00:46.885Z,1496.25
2023-05-22T07:01:47.060Z,1479.38
2023-05-22T07:02:47.006Z,1513.12
2023-05-22T07:03:46.963Z,1451.25
2023-05-22T07:04:46.879Z,1535.62
2023-05-22T07:05:46.990Z,1389.38
2023-05-22T07:06:46.877Z,1631.25
2023-05-22T07:07:47.603Z,1580.62
2023-05-22T07:08:47.017Z,1760.62
2023-05-22T07:09:46.834Z,1721.25
2023-05-22T07:10:46.837Z,1743.75
2023-05-22T07:11:46.816Z,1749.38
2023-05-22T07:12:46.792Z,1738.12
2023-05-22T07:13:46.770Z,1749.38
2023-05-22T07:14:46.694Z,1738.12
2023-05-22T07:15:46.884Z,1816.88
2023-05-22T07:16:46.771Z,1833.75
2023-05-22T07:17:46.808Z,1856.25
2023-05-22T07:18:46.716Z,1771.88
2023-05-22T07:19:46.650Z,1485.00
2023-05-22T07:20:46.699Z,1586.25
2023-05-22T07:21:46.672Z,1603.12
2023-05-22T07:22:46.873Z,1755.00
2023-05-22T07:23:46.648Z,1912.50
2023-05-22T07:24:46.563Z,1901.25
2023-05-22T07:25:46.588Z,1878.75
2023-05-22T07:26:46.813Z,1873.12
2023-05-22T07:27:46.626Z,1833.75
2023-05-22T07:28:46.660Z,1777.50
2023-05-22T07:29:46.547Z,1726.88
2023-05-22T07:30:46.531Z,1721.25
2023-05-22T07:31:46.695Z,1698.75
2023-05-22T07:32:46.495Z,1710.00
2023-05-22T07:33:46.502Z,1665.00
2023-05-22T07:34:46.491Z,1642.50
2023-05-22T07:35:46.460Z,1636.88
2023-05-22T07:36:46.411Z,1636.88
2023-05-22T07:37:46.476Z,1597.50
2023-05-22T07:38:46.396Z,1642.50
2023-05-22T07:39:46.370Z,1620.00
2023-05-22T07:40:46.415Z,1569.38
2023-05-22T07:41:46.328Z,1603.12
2023-05-22T07:42:46.362Z,1653.75
2023-05-22T07:43:46.380Z,1698.75
2023-05-22T07:44:46.362Z,1732.50
2023-05-22T07:45:46.341Z,1726.88
2023-05-22T07:46:46.348Z,1710.00
2023-05-22T07:47:46.350Z,1704.38
2023-05-22T07:48:46.309Z,1726.88
2023-05-22T07:49:46.431Z,1777.50
2023-05-22T07:50:46.574Z,1788.75
2023-05-22T07:51:46.434Z,1839.38
2023-05-22T07:52:46.844Z,1867.50
2023-05-22T07:53:47.122Z,1912.50
2023-05-22T07:54:47.408Z,1906.88
2023-05-22T07:55:46.671Z,1845.00
2023-05-22T07:56:46.201Z,1732.50
2023-05-22T07:57:47.043Z,1743.75
2023-05-22T07:58:46.273Z,1783.12
2023-05-22T07:59:47.098Z,1901.25
2023-05-22T08:00:46.236Z,2075.62
2023-05-22T08:01:46.723Z,2109.38
2023-05-22T08:02:47.127Z,2047.50
2023-05-22T08:03:47.121Z,2047.50
2023-05-22T08:04:46.909Z,2070.00
2023-05-22T08:05:46.620Z,2131.88
2023-05-22T08:06:46.198Z,2115.00
2023-05-22T08:07:46.010Z,2092.50
2023-05-22T08:08:45.940Z,2058.75
2023-05-22T08:09:46.068Z,2171.25
2023-05-22T08:11:02.590Z,2317.50
2023-05-22T08:11:46.929Z,2323.12
2023-05-22T08:12:45.931Z,2317.50
2023-05-22T08:13:45.929Z,2390.62
2023-05-22T08:14:46.688Z,2430.00
2023-05-22T08:15:45.927Z,2542.50
2023-05-22T08:16:45.859Z,2593.12
2023-05-22T08:17:45.876Z,2536.88
2023-05-22T08:18:45.857Z,2536.88
2023-05-22T08:19:45.945Z,2491.88
2023-05-22T08:20:45.810Z,2418.75
2023-05-22T08:21:45.783Z,2396.25
2023-05-22T08:22:46.053Z,2514.38
2023-05-22T08:23:45.813Z,2536.88
2023-05-22T08:24:45.862Z,2531.25
2023-05-22T08:25:45.784Z,2458.12
2023-05-22T08:26:45.786Z,2385.00
2023-05-22T08:27:45.724Z,2508.75
2023-05-22T08:28:45.689Z,2508.75
2023-05-22T08:29:45.810Z,2475.00
2023-05-22T08:30:45.685Z,2323.12
2023-05-22T08:31:45.695Z,2317.50
2023-05-22T08:32:45.780Z,2025.00
2023-05-22T08:33:45.634Z,2340.00
2023-05-22T08:34:45.641Z,1985.62
2023-05-22T08:35:45.593Z,2469.38
2023-05-22T08:36:45.659Z,2570.62
2023-05-22T08:37:46.536Z,2452.50
2023-05-22T08:38:46.417Z,2036.25
2023-05-22T08:39:45.585Z,2244.38
2023-05-22T08:40:46.446Z,2227.50
2023-05-22T08:41:45.556Z,2103.75
2023-05-22T08:42:45.513Z,2278.12
2023-05-22T08:43:45.543Z,2520.00
2023-05-22T08:44:46.162Z,2593.12
2023-05-22T08:45:46.242Z,2508.75
2023-05-22T08:46:45.659Z,2553.75
2023-05-22T08:47:46.040Z,2604.38
2023-05-22T08:48:45.434Z,2576.25
2023-05-22T08:49:45.595Z,2503.12
2023-05-22T08:50:46.334Z,2559.38
2023-05-22T08:51:45.542Z,2570.62
2023-05-22T08:52:46.408Z,2491.88
2023-05-22T08:53:46.297Z,2700.00
2023-05-22T08:54:46.198Z,2716.88
2023-05-22T08:55:46.352Z,2632.50
2023-05-22T08:56:56.161Z,2441.25
2023-05-22T08:57:46.376Z,2486.25
2023-05-22T08:58:46.299Z,2581.88
2023-05-22T08:59:45.268Z,2638.12
2023-05-22T09:00:46.185Z,2548.12
2023-05-22T09:01:46.326Z,2503.12
2023-05-22T09:02:46.433Z,2491.88
2023-05-22T09:03:46.166Z,2643.75
2023-05-22T09:04:45.193Z,2835.00
2023-05-22T09:05:46.161Z,2773.12
2023-05-22T09:06:45.262Z,2694.38
2023-05-22T09:07:45.213Z,2700.00
2023-05-22T09:08:45.259Z,2593.12
2023-05-22T09:09:45.292Z,2373.75
2023-05-22T09:10:45.233Z,2536.88
2023-05-22T09:11:45.300Z,2728.12
2023-05-22T09:12:45.138Z,2761.88
2023-05-22T09:13:45.272Z,2885.62
2023-05-22T09:14:46.031Z,2913.75
2023-05-22T09:15:45.992Z,2750.62
2023-05-22T09:16:45.896Z,2767.50
2023-05-22T09:17:45.127Z,2761.88
2023-05-22T09:18:45.965Z,2919.38
2023-05-22T09:19:45.854Z,2908.12
2023-05-22T09:20:46.154Z,2705.62
2023-05-22T09:21:45.029Z,2390.62
2023-05-22T09:22:45.223Z,2311.88
2023-05-22T09:23:45.085Z,2424.38
2023-05-22T09:24:44.992Z,2244.38
2023-05-22T09:25:44.988Z,2418.75
2023-05-22T09:26:45.104Z,2649.38
2023-05-22T09:27:45.050Z,2677.50
2023-05-22T09:28:44.922Z,2266.88
2023-05-22T09:29:45.033Z,2266.88
2023-05-22T09:30:44.973Z,2306.25
2023-05-22T09:31:45.803Z,1890.00
2023-05-22T09:32:45.994Z,2131.88
2023-05-22T09:33:44.864Z,1873.12
2023-05-22T09:34:45.041Z,2053.12
2023-05-22T09:35:44.841Z,2244.38
2023-05-22T09:36:45.158Z,2182.50
2023-05-22T09:37:44.911Z,2413.12
2023-05-22T09:38:44.812Z,2722.50
2023-05-22T09:39:44.762Z,2801.25
2023-05-22T09:40:44.862Z,2801.25
2023-05-22T09:41:44.757Z,2846.25
2023-05-22T09:42:44.821Z,2750.62
2023-05-22T09:43:44.794Z,2728.12
2023-05-22T09:44:44.693Z,2520.00
2023-05-22T09:45:44.674Z,2953.12
2023-05-22T09:46:44.899Z,3217.50
2023-05-22T09:47:44.739Z,3206.25
2023-05-22T09:48:44.688Z,3071.25
2023-05-22T09:49:45.181Z,3195.00
2023-05-22T09:50:45.197Z,3223.12
2023-05-22T09:51:44.672Z,3211.88
2023-05-22T09:52:44.626Z,3133.12
2023-05-22T09:53:44.598Z,3020.62
2023-05-22T09:54:45.167Z,2857.50
2023-05-22T09:55:44.854Z,2936.25
2023-05-22T09:56:44.597Z,2851.88
2023-05-22T09:57:44.643Z,2756.25
2023-05-22T09:58:44.557Z,2688.75
2023-05-22T09:59:44.723Z,2559.38
2023-05-22T10:00:44.533Z,2818.12
2023-05-22T10:01:45.236Z,2840.62
2023-05-22T10:02:44.568Z,3279.38
2023-05-22T10:03:45.210Z,3099.38
2023-05-22T10:04:44.568Z,2868.75
2023-05-22T10:05:44.509Z,2812.50
2023-05-22T10:06:44.504Z,2705.62
2023-05-22T10:07:44.420Z,3015.00
2023-05-22T10:08:44.479Z,3245.62
2023-05-22T10:09:44.439Z,3082.50
2023-05-22T10:10:44.377Z,3408.75
2023-05-22T10:11:44.351Z,3397.50
2023-05-22T10:12:44.384Z,3448.12
2023-05-22T10:13:44.345Z,3133.12
2023-05-22T10:14:44.359Z,3031.88
2023-05-22T10:15:44.441Z,3150.00
2023-05-22T10:16:44.372Z,3256.88
2023-05-22T10:17:44.356Z,3285.00
2023-05-22T10:18:44.386Z,3526.88
2023-05-22T10:19:45.391Z,3886.88
2023-05-22T10:20:44.742Z,4168.12
2023-05-22T10:21:44.307Z,4111.88
2023-05-22T10:22:44.340Z,3988.12
2023-05-22T10:23:44.282Z,3937.50
2023-05-22T10:24:44.275Z,3690.00
2023-05-22T10:25:44.227Z,3380.62
2023-05-22T10:26:44.163Z,3307.50
2023-05-22T10:27:44.230Z,3082.50
2023-05-22T10:28:44.160Z,2992.50
2023-05-22T10:29:44.152Z,3060.00
2023-05-22T10:30:44.121Z,2953.12
2023-05-22T10:31:44.166Z,2835.00
2023-05-22T10:32:44.100Z,3166.88
2023-05-22T10:33:44.234Z,3251.25
2023-05-22T10:34:44.235Z,3543.75
2023-05-22T10:35:44.132Z,3650.62
2023-05-22T10:36:44.756Z,3538.12
2023-05-22T10:37:44.114Z,3712.50
2023-05-22T10:38:44.022Z,4016.25
2023-05-22T10:39:44.053Z,4258.12
2023-05-22T10:40:44.247Z,4291.88
2023-05-22T10:41:43.980Z,4387.50
2023-05-22T10:42:43.962Z,4168.12
2023-05-22T10:43:44.012Z,4027.50
2023-05-22T10:44:43.952Z,4263.75
2023-05-22T10:45:45.392Z,3948.75
2023-05-22T10:46:43.931Z,4128.75
2023-05-22T10:47:43.924Z,4117.50
2023-05-22T10:48:43.887Z,3976.88
2023-05-22T10:49:43.932Z,3650.62
2023-05-22T10:50:43.932Z,3560.62
2023-05-22T10:51:43.899Z,3352.50
2023-05-22T10:52:43.838Z,3189.38
2023-05-22T10:53:43.850Z,3133.12
2023-05-22T10:54:43.899Z,3082.50
2023-05-22T10:55:43.806Z,3189.38
2023-05-22T10:56:43.806Z,3307.50
2023-05-22T10:57:43.773Z,3324.38
2023-05-22T10:58:43.776Z,2610.00
2023-05-22T10:59:43.763Z,2385.00
2023-05-22T11:00:44.573Z,2694.38
2023-05-22T11:01:43.754Z,2750.62
2023-05-22T11:02:43.866Z,2570.62
2023-05-22T11:03:43.689Z,2340.00
2023-05-22T11:04:43.784Z,2379.38
2023-05-22T11:05:43.694Z,2593.12
2023-05-22T11:06:43.743Z,2536.88
2023-05-22T11:07:44.084Z,2677.50
2023-05-22T11:08:43.655Z,2626.88
2023-05-22T11:09:43.686Z,2430.00
2023-05-22T11:10:43.604Z,2278.12
2023-05-22T11:11:43.606Z,2655.00
2023-05-22T11:12:43.629Z,2778.75
2023-05-22T11:13:43.709Z,2610.00
2023-05-22T11:14:43.570Z,2581.88
2023-05-22T11:15:44.452Z,2430.00
2023-05-22T11:16:43.692Z,3380.62
2023-05-22T11:17:43.665Z,2503.12
2023-05-22T11:18:45.217Z,3217.50
2023-05-22T11:19:43.582Z,2880.00
2023-05-22T11:20:43.577Z,3133.12
2023-05-22T11:21:43.487Z,3403.12
2023-05-22T11:22:43.485Z,3195.00
2023-05-22T11:23:43.500Z,2795.62
2023-05-22T11:24:43.432Z,2536.88
2023-05-22T11:25:43.415Z,2300.62
2023-05-22T11:26:43.491Z,2126.25
2023-05-22T11:27:43.433Z,2109.38
2023-05-22T11:28:43.408Z,2379.38
2023-05-22T11:29:43.382Z,2536.88
2023-05-22T11:30:43.398Z,2750.62
2023-05-22T11:31:43.416Z,2750.62
2023-05-22T11:32:43.347Z,2514.38
2023-05-22T11:33:43.331Z,2373.75
2023-05-22T11:34:43.467Z,2638.12
2023-05-22T11:35:43.332Z,2638.12
2023-05-22T11:36:43.307Z,2728.12
2023-05-22T11:37:43.293Z,2615.62
2023-05-22T11:38:44.138Z,2520.00
2023-05-22T11:39:43.273Z,2801.25
2023-05-22T11:40:44.071Z,3875.62
2023-05-22T11:41:43.233Z,3954.38
2023-05-22T11:42:43.200Z,3583.12
2023-05-22T11:43:43.252Z,2756.25
2023-05-22T11:44:43.205Z,3161.25
2023-05-22T11:45:44.089Z,3836.25
2023-05-22T11:46:43.237Z,2761.88
2023-05-22T11:47:43.194Z,3313.12
2023-05-22T11:48:43.151Z,2446.88
2023-05-22T11:49:43.236Z,2368.12
2023-05-22T11:50:43.282Z,2857.50
2023-05-22T11:51:43.108Z,2503.12
2023-05-22T11:52:43.151Z,2891.25
2023-05-22T11:53:43.110Z,2193.75
2023-05-22T11:54:43.076Z,2131.88
2023-05-22T11:55:43.074Z,2773.12
2023-05-22T11:56:43.114Z,2868.75
2023-05-22T11:57:43.027Z,3510.00
2023-05-22T11:58:43.008Z,3571.88
2023-05-22T11:59:43.036Z,4246.88
2023-05-22T12:00:43.171Z,4190.62
2023-05-22T12:01:42.986Z,4899.38
2023-05-22T12:02:43.051Z,4190.62
2023-05-22T12:03:43.035Z,4477.50
2023-05-22T12:04:42.947Z,3110.62
2023-05-22T12:05:42.996Z,3836.25
2023-05-22T12:06:42.951Z,4050.00
2023-05-22T12:07:43.799Z,4668.75
2023-05-22T12:08:42.942Z,3600.00
2023-05-22T12:09:43.787Z,3960.00
2023-05-22T12:10:42.868Z,2986.88
2023-05-22T12:11:42.828Z,3256.88
2023-05-22T12:12:42.890Z,3729.38
2023-05-22T12:13:42.860Z,4145.62
2023-05-22T12:14:42.814Z,3701.25
2023-05-22T12:15:42.844Z,4055.62
2023-05-22T12:16:42.862Z,3999.38
2023-05-22T12:17:43.603Z,4162.50
2023-05-22T12:18:42.795Z,4033.12
2023-05-22T12:19:43.405Z,4016.25
2023-05-22T12:20:42.752Z,3442.50
2023-05-22T12:21:42.759Z,4477.50
2023-05-22T12:22:42.786Z,4635.00
2023-05-22T12:23:42.734Z,4145.62
2023-05-22T12:24:42.775Z,3858.75
2023-05-22T12:25:42.680Z,4201.88
2023-05-22T12:26:42.647Z,3127.50
2023-05-22T12:27:42.650Z,3127.50
2023-05-22T12:28:43.544Z,2705.62
2023-05-22T12:29:42.639Z,2638.12
2023-05-22T12:30:43.567Z,3133.12
2023-05-22T12:31:43.570Z,3673.12
2023-05-22T12:32:43.484Z,4241.25
2023-05-22T12:33:42.611Z,4331.25
2023-05-22T12:34:43.512Z,4275.00
2023-05-22T12:35:43.413Z,4207.50
2023-05-22T12:36:42.570Z,4140.00
2023-05-22T12:37:43.489Z,3965.62
2023-05-22T12:38:43.498Z,3943.12
2023-05-22T12:39:43.613Z,4033.12
2023-05-22T12:40:43.472Z,4218.75
2023-05-22T12:41:42.581Z,4128.75
2023-05-22T12:42:42.616Z,4173.75
2023-05-22T12:43:43.405Z,4151.25
2023-05-22T12:44:42.661Z,3723.75
2023-05-22T12:45:42.439Z,4151.25
2023-05-22T12:46:42.523Z,4201.88
2023-05-22T12:47:42.471Z,3976.88
2023-05-22T12:48:42.974Z,4027.50
2023-05-22T12:49:42.897Z,4263.75
2023-05-22T12:50:42.977Z,4331.25
2023-05-22T12:51:42.458Z,2238.75
2023-05-22T12:52:43.118Z,2362.50
2023-05-22T12:53:43.185Z,3690.00
2023-05-22T12:54:42.312Z,4213.12
2023-05-22T12:55:42.296Z,4151.25
2023-05-22T12:56:42.476Z,4168.12
2023-05-22T12:57:42.280Z,3352.50
2023-05-22T12:58:42.439Z,3785.62
2023-05-22T12:59:42.237Z,3785.62
2023-05-22T13:00:42.520Z,3965.62
2023-05-22T13:01:42.289Z,3982.50
2023-05-22T13:02:42.401Z,3746.25
2023-05-22T13:03:42.216Z,1636.88
2023-05-22T13:04:42.256Z,1462.50
2023-05-22T13:05:42.503Z,2694.38
2023-05-22T13:06:42.965Z,3960.00
2023-05-22T13:07:42.245Z,3954.38
2023-05-22T13:08:42.278Z,3875.62
2023-05-22T13:09:42.950Z,3751.88
2023-05-22T13:10:42.308Z,3763.12
2023-05-22T13:11:42.154Z,3825.00
2023-05-22T13:12:43.034Z,3982.50
2023-05-22T13:13:42.262Z,3729.38
2023-05-22T13:14:42.173Z,3290.62
2023-05-22T13:15:42.607Z,3397.50